Time;durP1;ratioP1;P1;durP2;ratioP2;P2;SDS_P1;SDS_P2;PMS_P1;PMS_P2;Temp;Humidity;BMP_temperature;BMP_pressure;BME280_temperature;BME280_humidity;BME280_pressure;Samples;Min_cycle;Max_cycle;Signal;HPM_P1;HPM_P2
2023/04/04 00:01:34;;;;;;;8.23;3.38;;;;;;;5.20;56.61;102875.06;5055976;28;20029;-79
2023/04/04 00:04:00;;;;;;;4.90;2.92;;;;;;;5.05;56.43;102861.84;5055733;28;20037;-79
2023/04/04 00:06:25;;;;;;;6.82;3.45;;;;;;;5.02;56.77;102883.53;5054102;28;20037;-79
2023/04/04 00:08:50;;;;;;;7.32;3.03;;;;;;;5.00;56.36;102882.50;5055691;28;20432;-80
2023/04/04 00:11:16;;;;;;;8.32;3.40;;;;;;;4.93;56.27;102876.78;5054235;28;20033;-79
2023/04/04 00:13:42;;;;;;;5.03;3.08;;;;;;;4.80;57.07;102866.28;5055599;28;20453;-79
2023/04/04 00:16:07;;;;;;;6.90;3.38;;;;;;;4.98;56.60;102883.22;5055529;28;20104;-78
2023/04/04 00:18:33;;;;;;;5.88;3.17;;;;;;;4.82;57.26;102862.06;5055536;28;20029;-79
2023/04/04 00:20:58;;;;;;;6.38;3.25;;;;;;;4.84;57.81;102892.81;5055526;28;20123;-79
2023/04/04 00:23:24;;;;;;;6.80;3.20;;;;;;;4.65;57.64;102872.31;5055446;28;20060;-79
2023/04/04 00:25:51;;;;;;;10.25;3.20;;;;;;;4.61;57.24;102866.75;5055140;28;20025;-78
2023/04/04 00:28:17;;;;;;;7.25;3.20;;;;;;;4.70;57.88;102883.09;5053933;28;20029;-78
2023/04/04 00:30:43;;;;;;;8.25;3.22;;;;;;;4.68;57.45;102871.63;5055329;28;20376;-79
2023/04/04 00:33:08;;;;;;;6.90;3.20;;;;;;;4.78;57.04;102884.50;5055395;28;20457;-79
2023/04/04 00:35:33;;;;;;;5.88;3.08;;;;;;;4.74;57.65;102888.63;5055220;28;20021;-79
2023/04/04 00:37:59;;;;;;;5.10;3.20;;;;;;;4.72;57.04;102891.97;5054994;28;20258;-79
2023/04/04 00:40:24;;;;;;;5.75;2.78;;;;;;;4.62;58.04;102879.94;5053870;28;20528;-79
2023/04/04 00:42:50;;;;;;;6.15;2.95;;;;;;;4.77;57.81;102890.56;5054823;28;20116;-80
2023/04/04 00:45:16;;;;;;;6.68;2.88;;;;;;;4.72;57.54;102878.88;5054909;28;20086;-78
2023/04/04 00:47:42;;;;;;;8.75;3.42;;;;;;;4.78;57.60;102890.66;5053642;28;20420;-79
2023/04/04 00:50:08;;;;;;;6.30;3.00;;;;;;;4.75;57.15;102895.72;5055052;28;20530;-78
2023/04/04 00:52:33;;;;;;;8.25;3.20;;;;;;;4.63;56.93;102879.16;5053129;28;20033;-79
2023/04/04 00:54:59;;;;;;;7.82;3.17;;;;;;;4.74;57.65;102893.88;5054612;28;20448;-79
2023/04/04 00:57:27;;;;;;;4.82;2.90;;;;;;;4.77;57.58;102885.31;5054554;28;20044;-79
2023/04/04 00:59:53;;;;;;;6.13;2.92;;;;;;;4.81;57.34;102887.34;5054657;28;20116;-78
2023/04/04 01:02:18;;;;;;;8.27;2.83;;;;;;;4.78;57.06;102890.66;5054430;28;20473;-80
2023/04/04 01:04:43;;;;;;;7.63;3.10;;;;;;;4.78;56.83;102893.28;5053500;28;20441;-79
2023/04/04 01:07:10;;;;;;;8.70;3.08;;;;;;;4.80;56.90;102893.41;5053135;28;20086;-79
2023/04/04 01:09:35;;;;;;;5.75;3.00;;;;;;;4.82;57.09;102891.78;5054685;28;20029;-79
2023/04/04 01:12:01;;;;;;;7.15;2.95;;;;;;;4.75;57.24;102874.75;5054565;28;20108;-79
2023/04/04 01:14:27;;;;;;;7.07;3.08;;;;;;;4.74;57.77;102870.31;5054226;28;20037;-78
2023/04/04 01:16:52;;;;;;;7.05;3.00;;;;;;;4.89;57.38;102880.00;5054457;28;20526;-79
2023/04/04 01:19:32;;;;;;;5.03;3.03;;;;;;;4.82;57.77;102877.78;5054570;28;20040;-79
2023/04/04 01:22:00;;;;;;;6.15;3.00;;;;;;;4.67;58.45;102875.97;5053020;28;20367;-79
2023/04/04 01:24:29;;;;;;;6.93;2.88;;;;;;;4.55;59.04;102867.28;5054235;28;20552;-79
2023/04/04 01:26:55;;;;;;;5.60;3.00;;;;;;;4.56;59.36;102869.06;5054115;28;20025;-79
2023/04/04 01:29:20;;;;;;;5.35;3.10;;;;;;;4.62;58.77;102864.25;5054122;28;20040;-79
2023/04/04 01:32:02;;;;;;;11.25;2.90;;;;;;;4.60;58.82;102865.88;5054112;28;20119;-79
2023/04/04 01:34:41;;;;;;;5.68;2.88;;;;;;;4.69;58.80;102866.47;5054145;28;20131;-79
2023/04/04 01:37:14;;;;;;;5.18;3.10;;;;;;;4.73;58.98;102862.34;5054016;28;20041;-79
2023/04/04 01:39:48;;;;;;;5.80;3.10;;;;;;;4.65;58.36;102855.69;5054181;28;20032;-79
2023/04/04 01:42:14;;;;;;;6.28;2.90;;;;;;;4.56;58.55;102856.00;5053738;28;20452;-79
2023/04/04 01:44:40;;;;;;;6.70;3.10;;;;;;;4.58;59.04;102856.97;5036000;28;20078;-84
2023/04/04 01:47:07;;;;;;;5.45;2.95;;;;;;;4.44;58.63;102837.72;5052924;28;20029;-79
2023/04/04 01:49:33;;;;;;;5.00;3.20;;;;;;;4.49;59.39;102858.97;5053747;28;20044;-79
2023/04/04 01:51:59;;;;;;;6.20;3.15;;;;;;;4.42;59.33;102849.81;5053433;28;20415;-79
2023/04/04 01:54:27;;;;;;;5.88;2.97;;;;;;;4.38;58.68;102855.66;5053786;28;20102;-80
2023/04/04 01:56:52;;;;;;;8.40;3.10;;;;;;;4.30;59.04;102850.69;5053685;28;20041;-79
2023/04/04 01:59:18;;;;;;;6.05;3.03;;;;;;;4.18;59.14;102851.66;5053565;28;20408;-79
2023/04/04 02:01:49;;;;;;;7.57;3.40;;;;;;;4.18;58.85;102856.91;5053379;28;20048;-79
2023/04/04 02:04:17;;;;;;;6.03;3.05;;;;;;;4.05;59.07;102843.78;5053962;28;20025;-79
2023/04/04 02:06:43;;;;;;;7.82;3.20;;;;;;;4.07;59.55;102851.72;5053329;28;20043;-81
2023/04/04 02:09:08;;;;;;;8.55;3.05;;;;;;;4.00;59.25;102834.72;5053898;28;20373;-80
2023/04/04 02:11:33;;;;;;;7.72;3.22;;;;;;;4.03;58.91;102834.94;5052273;28;20064;-79
2023/04/04 02:13:59;;;;;;;7.22;3.30;;;;;;;4.01;59.25;102845.25;5053472;28;20029;-78
2023/04/04 02:16:24;;;;;;;6.40;2.83;;;;;;;4.03;59.80;102853.25;5051986;28;20484;-79
2023/04/04 02:18:50;;;;;;;5.40;3.03;;;;;;;3.93;58.81;102846.44;5053059;28;20029;-79
2023/04/04 02:21:15;;;;;;;6.78;3.20;;;;;;;3.92;59.92;102854.19;5053121;28;20035;-78
2023/04/04 02:23:40;;;;;;;5.68;3.00;;;;;;;3.86;60.09;102857.28;5052061;28;20108;-79
2023/04/04 02:26:06;;;;;;;7.47;3.25;;;;;;;3.71;59.33;102845.75;5053257;28;20117;-78
2023/04/04 02:28:31;;;;;;;7.70;3.05;;;;;;;3.78;60.06;102868.00;5053291;28;20124;-79
2023/04/04 02:31:01;;;;;;;8.55;3.50;;;;;;;3.74;60.13;102874.72;5053169;28;20453;-79
2023/04/04 02:33:27;;;;;;;5.32;2.95;;;;;;;3.71;60.74;102864.03;5053139;28;20033;-78
2023/04/04 02:35:57;;;;;;;6.22;3.17;;;;;;;3.68;60.12;102863.81;5051688;28;20083;-79
2023/04/04 02:38:22;;;;;;;7.78;3.42;;;;;;;3.83;60.17;102871.84;5051765;28;20055;-78
2023/04/04 02:40:48;;;;;;;8.90;3.40;;;;;;;3.85;60.16;102872.84;5053128;28;20033;-79
2023/04/04 02:43:13;;;;;;;6.45;3.15;;;;;;;3.80;60.09;102872.53;5052958;28;20033;-79
2023/04/04 02:45:38;;;;;;;7.47;3.15;;;;;;;3.76;59.90;102875.72;5051958;28;20036;-79
2023/04/04 02:48:06;;;;;;;6.00;3.60;;;;;;;3.64;59.60;102852.25;5053019;28;20120;-78
2023/04/04 02:50:32;;;;;;;7.72;3.30;;;;;;;3.71;59.87;102872.78;5052753;28;20581;-78
2023/04/04 02:53:01;;;;;;;6.30;3.50;;;;;;;3.71;60.02;102869.28;5053021;28;20116;-79
2023/04/04 02:55:26;;;;;;;6.20;3.45;;;;;;;3.71;59.83;102844.03;5053037;28;20429;-78
2023/04/04 02:57:51;;;;;;;6.93;3.38;;;;;;;3.90;60.21;102858.41;5052994;28;20033;-79
2023/04/04 03:00:17;;;;;;;7.28;3.33;;;;;;;3.92;59.93;102854.19;5052890;28;20069;-79
2023/04/04 03:02:43;;;;;;;9.95;3.55;;;;;;;3.80;59.73;102835.03;5052527;28;20502;-79
2023/04/04 03:05:08;;;;;;;7.22;3.42;;;;;;;3.72;59.65;102845.84;5052899;28;20037;-78
2023/04/04 03:07:34;;;;;;;6.47;3.33;;;;;;;3.65;60.21;102851.44;5052357;28;20389;-79
2023/04/04 03:09:59;;;;;;;6.55;3.33;;;;;;;3.51;60.35;102839.09;5051365;28;20032;-79
2023/04/04 03:12:26;;;;;;;8.57;3.50;;;;;;;3.58;60.47;102858.75;5052539;28;20029;-79
2023/04/04 03:14:51;;;;;;;7.10;3.50;;;;;;;3.51;60.71;102852.16;5052758;28;20032;-79
2023/04/04 03:17:17;;;;;;;8.45;3.40;;;;;;;3.49;60.40;102859.00;5053757;28;20037;-79
2023/04/04 03:19:42;;;;;;;10.27;3.72;;;;;;;3.43;60.95;102853.34;5056725;28;20370;-79
2023/04/04 03:22:08;;;;;;;9.23;3.70;;;;;;;3.44;60.83;102860.38;5056398;28;20055;-78
2023/04/04 03:24:35;;;;;;;6.72;3.28;;;;;;;3.40;60.14;102848.78;5055406;28;20095;-78
2023/04/04 03:27:00;;;;;;;6.50;3.22;;;;;;;3.49;60.19;102866.84;5056487;28;20041;-78
2023/04/04 03:29:29;;;;;;;7.22;3.10;;;;;;;3.53;60.43;102858.41;5055122;28;20369;-78
2023/04/04 03:31:54;;;;;;;5.53;3.03;;;;;;;3.48;59.93;102844.13;5056127;28;20449;-78
2023/04/04 03:34:20;;;;;;;9.50;3.22;;;;;;;3.54;60.52;102861.94;5056444;28;20072;-78
2023/04/04 03:36:45;;;;;;;6.22;3.38;;;;;;;3.49;60.51;102859.00;5056208;28;20098;-78
2023/04/04 03:39:11;;;;;;;7.03;3.15;;;;;;;3.44;60.46;102856.06;5056024;28;20116;-79
2023/04/04 03:41:37;;;;;;;7.15;3.45;;;;;;;3.28;60.59;102819.16;5056348;28;20033;-78
2023/04/04 03:44:03;;;;;;;5.32;3.17;;;;;;;3.50;60.90;102848.63;5056205;28;20401;-79
2023/04/04 03:46:29;;;;;;;6.78;3.22;;;;;;;3.54;60.51;102836.69;5056109;28;20025;-78
2023/04/04 03:48:55;;;;;;;6.35;3.33;;;;;;;3.58;59.92;102840.44;5056048;28;20098;-78
2023/04/04 03:51:24;;;;;;;7.10;3.28;;;;;;;3.55;60.82;102833.28;5056134;28;20107;-78
2023/04/04 03:53:49;;;;;;;11.10;3.42;;;;;;;3.60;61.09;102833.59;5055987;28;20393;-78
2023/04/04 03:56:15;;;;;;;5.28;3.30;;;;;;;3.58;60.88;102828.28;5056101;28;20051;-79
2023/04/04 03:58:40;;;;;;;7.50;3.17;;;;;;;3.62;60.89;102822.47;5055855;28;20543;-79
2023/04/04 04:01:06;;;;;;;8.10;3.28;;;;;;;3.57;61.08;102831.69;5054716;28;20041;-78
2023/04/04 04:03:31;;;;;;;6.38;3.40;;;;;;;3.48;61.51;102829.34;5055436;28;20060;-78
2023/04/04 04:05:58;;;;;;;5.47;3.33;;;;;;;3.33;61.37;102815.16;5054563;28;20045;-78
2023/04/04 04:08:23;;;;;;;7.55;3.40;;;;;;;3.37;61.99;102831.97;5055927;28;20064;-78
2023/04/04 04:10:49;;;;;;;6.82;3.20;;;;;;;3.33;61.38;102836.06;5056083;28;20473;-78
2023/04/04 04:13:14;;;;;;;8.15;3.60;;;;;;;3.36;61.25;102835.41;5054360;28;20048;-78
2023/04/04 04:15:40;;;;;;;6.05;3.22;;;;;;;3.31;61.33;102842.91;5054518;28;20465;-79
2023/04/04 04:18:07;;;;;;;5.05;3.13;;;;;;;3.12;60.78;102824.97;5056164;28;20041;-78
2023/04/04 04:20:32;;;;;;;8.82;3.60;;;;;;;3.10;61.77;102837.03;5054691;28;20473;-78
2023/04/04 04:22:58;;;;;;;10.48;3.35;;;;;;;3.05;61.85;102838.41;5055581;28;20040;-78
2023/04/04 04:25:23;;;;;;;9.15;3.40;;;;;;;3.08;62.18;102833.38;5055579;28;20068;-78
2023/04/04 04:27:49;;;;;;;8.00;3.50;;;;;;;3.15;62.45;102833.03;5053945;28;20049;-78
2023/04/04 04:30:14;;;;;;;5.97;3.47;;;;;;;3.14;62.10;102826.00;5053793;28;20029;-79
2023/04/04 04:32:40;;;;;;;8.27;3.42;;;;;;;3.15;61.74;102822.59;5055085;28;20417;-80
2023/04/04 04:35:06;;;;;;;5.70;3.38;;;;;;;3.10;61.89;102804.78;5055341;28;20067;-78
2023/04/04 04:37:31;;;;;;;8.57;3.60;;;;;;;3.20;62.53;102820.31;5055113;28;20461;-78
2023/04/04 04:39:56;;;;;;;8.40;3.45;;;;;;;3.17;61.43;102830.53;5055144;28;20036;-79
2023/04/04 04:42:22;;;;;;;6.78;3.22;;;;;;;3.12;61.35;102831.91;5053748;28;20432;-79
2023/04/04 04:44:47;;;;;;;6.57;3.78;;;;;;;3.06;62.63;102835.00;5055024;28;20446;-78
2023/04/04 04:47:13;;;;;;;5.53;3.30;;;;;;;3.05;62.96;102833.19;5054956;28;20033;-79
2023/04/04 04:49:38;;;;;;;7.25;3.05;;;;;;;3.01;62.67;102816.38;5054736;28;20033;-79
2023/04/04 04:52:03;;;;;;;5.65;3.10;;;;;;;3.12;62.61;102834.50;5053643;28;20458;-78
2023/04/04 04:54:29;;;;;;;7.60;3.28;;;;;;;3.06;62.39;102834.09;5055041;28;20078;-79
2023/04/04 04:56:54;;;;;;;9.07;3.58;;;;;;;3.01;62.40;102849.41;5053612;28;20048;-79
2023/04/04 04:59:20;;;;;;;7.38;3.45;;;;;;;2.76;62.82;102823.19;5054653;28;20404;-79
2023/04/04 05:01:45;;;;;;;7.28;4.25;;;;;;;2.77;62.32;102835.44;5054688;28;20071;-79
2023/04/04 05:04:11;;;;;;;6.40;3.35;;;;;;;2.85;62.19;102852.59;5053057;28;20397;-80
2023/04/04 05:06:37;;;;;;;5.65;3.58;;;;;;;2.79;62.32;102851.25;5053913;28;20029;-79
2023/04/04 05:09:04;;;;;;;7.57;3.67;;;;;;;2.78;63.03;102857.25;5054234;28;20037;-79
2023/04/04 05:11:29;;;;;;;6.05;3.50;;;;;;;2.82;62.44;102862.78;5052754;28;20036;-79
2023/04/04 05:13:55;;;;;;;5.88;3.42;;;;;;;2.89;62.47;102865.09;5053926;28;20034;-79
2023/04/04 05:16:20;;;;;;;9.57;3.60;;;;;;;2.91;62.74;102859.97;5054058;28;20036;-78
2023/04/04 05:18:46;;;;;;;10.10;3.58;;;;;;;2.83;62.22;102848.06;5052527;28;20044;-79
2023/04/04 05:21:12;;;;;;;7.75;3.67;;;;;;;2.86;61.74;102854.41;5035928;28;20037;-79
2023/04/04 05:23:37;;;;;;;5.68;3.50;;;;;;;2.78;62.08;102841.56;5052483;28;20461;-79
2023/04/04 05:26:03;;;;;;;5.80;3.70;;;;;;;2.89;62.33;102864.19;5052580;28;20515;-78
2023/04/04 05:28:28;;;;;;;6.70;3.90;;;;;;;2.87;62.26;102851.03;5035587;28;20384;-78
2023/04/04 05:30:53;;;;;;;8.23;3.88;;;;;;;2.99;62.32;102862.34;5053665;28;20033;-79
2023/04/04 05:33:19;;;;;;;9.30;4.78;;;;;;;3.00;62.27;102855.44;5052344;28;20048;-79
2023/04/04 05:35:44;;;;;;;9.02;5.25;;;;;;;2.98;62.11;102852.69;5053595;28;20025;-79
2023/04/04 05:38:10;;;;;;;9.02;4.80;;;;;;;3.12;61.87;102861.53;5052187;28;20029;-78
2023/04/04 05:40:35;;;;;;;8.90;4.80;;;;;;;3.24;62.33;102859.81;5035204;28;20107;-78
2023/04/04 05:43:03;;;;;;;16.23;7.30;;;;;;;3.35;62.03;102857.09;5052073;28;20035;-80
2023/04/04 05:45:30;;;;;;;25.55;11.10;;;;;;;3.48;62.38;102875.47;5035411;28;20037;-78
2023/04/04 05:47:55;;;;;;;21.30;10.70;;;;;;;3.63;62.17;102876.56;5053384;28;20032;-78
2023/04/04 05:50:20;;;;;;;26.98;12.70;;;;;;;3.78;61.25;102878.47;5052984;28;20456;-81
2023/04/04 05:52:46;;;;;;;22.23;10.35;;;;;;;3.89;62.27;102874.88;5053191;28;20091;-79
2023/04/04 05:55:11;;;;;;;17.73;9.25;;;;;;;3.79;61.36;102847.19;5035248;28;20104;-79
2023/04/04 05:57:37;;;;;;;12.82;6.93;;;;;;;4.11;61.26;102883.47;5053335;28;20060;-80
2023/04/04 06:00:04;;;;;;;12.93;6.03;;;;;;;4.24;62.03;102875.66;5052766;28;20096;-79
2023/04/04 06:02:30;;;;;;;11.63;6.78;;;;;;;4.40;61.44;102871.44;5052735;28;20057;-78
2023/04/04 06:04:56;;;;;;;17.02;7.85;;;;;;;4.52;60.90;102862.72;5053347;28;20043;-79
2023/04/04 06:07:21;;;;;;;13.90;7.80;;;;;;;4.72;60.49;102885.03;5052549;28;20400;-79
2023/04/04 06:09:47;;;;;;;16.17;7.22;;;;;;;4.87;60.42;102879.88;5053152;28;20465;-79
2023/04/04 06:12:12;;;;;;;14.13;6.55;;;;;;;5.05;60.95;102882.81;5053000;28;20573;-79
2023/04/04 06:14:37;;;;;;;9.02;4.97;;;;;;;4.85;58.78;102847.47;5052024;28;20029;-79
2023/04/04 06:17:04;;;;;;;14.98;5.70;;;;;;;4.96;59.59;102858.63;5052842;28;20465;-79
2023/04/04 06:19:30;;;;;;;12.52;4.80;;;;;;;5.07;59.47;102880.31;5052728;28;20065;-79
2023/04/04 06:21:55;;;;;;;14.13;4.57;;;;;;;5.09;59.52;102865.56;5052881;28;20456;-79
2023/04/04 06:24:21;;;;;;;7.82;4.43;;;;;;;5.17;57.92;102867.00;5051620;28;20029;-80
2023/04/04 06:26:50;;;;;;;12.18;4.68;;;;;;;5.34;59.46;102875.94;5051529;28;20059;-80
2023/04/04 06:29:16;;;;;;;11.80;4.47;;;;;;;5.39;56.87;102887.63;5052857;28;20039;-79
2023/04/04 06:31:42;;;;;;;14.68;5.75;;;;;;;5.37;57.75;102873.53;5052862;28;20040;-80
2023/04/04 06:34:07;;;;;;;11.50;5.30;;;;;;;5.51;57.81;102885.81;5052665;28;20037;-80
2023/04/04 06:36:33;;;;;;;7.72;4.22;;;;;;;5.70;57.15;102893.16;5052680;28;20450;-80
2023/04/04 06:38:58;;;;;;;8.60;4.40;;;;;;;5.88;56.51;102901.25;5052580;28;20040;-79
2023/04/04 06:41:23;;;;;;;5.93;4.18;;;;;;;6.07;55.56;102893.75;5052462;28;20041;-80
2023/04/04 06:43:49;;;;;;;11.02;4.60;;;;;;;6.26;56.02;102890.56;5052287;28;20033;-80
2023/04/04 06:46:14;;;;;;;9.93;4.68;;;;;;;6.24;55.42;102882.56;5052577;28;20029;-81
2023/04/04 06:48:40;;;;;;;8.70;4.50;;;;;;;6.39;54.63;102868.56;5052679;28;20033;-80
2023/04/04 06:51:06;;;;;;;9.20;4.40;;;;;;;6.55;54.50;102875.63;5053144;28;20090;-80
2023/04/04 06:53:33;;;;;;;8.55;4.47;;;;;;;6.83;54.22;102891.31;5056955;28;20128;-80
2023/04/04 06:55:59;;;;;;;7.82;4.38;;;;;;;6.92;52.10;102883.97;5056588;28;20064;-81
2023/04/04 06:58:24;;;;;;;6.55;4.60;;;;;;;7.13;52.42;102900.97;5056672;28;20064;-79
2023/04/04 07:00:50;;;;;;;8.82;4.57;;;;;;;7.22;51.71;102890.97;5055051;28;20029;-80
2023/04/04 07:03:15;;;;;;;7.53;4.38;;;;;;;7.48;52.34;102895.09;5056608;28;20063;-80
2023/04/04 07:05:41;;;;;;;7.15;4.30;;;;;;;7.68;50.47;102908.47;5056222;28;20036;-81
2023/04/04 07:08:07;;;;;;;7.88;4.50;;;;;;;7.71;50.99;102893.75;5038479;28;20473;-80
2023/04/04 07:10:38;;;;;;;7.50;4.60;;;;;;;7.89;51.27;102901.75;5056412;28;20033;-80
2023/04/04 07:13:04;;;;;;;12.15;4.82;;;;;;;7.97;49.76;102875.84;5056471;28;20174;-80
2023/04/04 07:15:29;;;;;;;7.47;4.35;;;;;;;8.20;49.64;102892.88;5054849;28;20072;-80
2023/04/04 07:17:54;;;;;;;7.80;4.25;;;;;;;8.49;49.14;102905.88;5054813;28;20033;-79
2023/04/04 07:20:20;;;;;;;8.98;4.18;;;;;;;8.71;48.58;102905.25;5056387;28;20438;-80
2023/04/04 07:22:45;;;;;;;6.95;4.07;;;;;;;8.89;48.43;102902.66;5054910;28;20032;-80
2023/04/04 07:25:14;;;;;;;7.72;4.10;;;;;;;8.99;47.87;102894.41;5056461;28;20033;-80
2023/04/04 07:27:42;;;;;;;9.35;4.38;;;;;;;9.25;46.26;102897.41;5056187;28;20032;-79
2023/04/04 07:30:08;;;;;;;6.55;4.10;;;;;;;9.48;45.93;102894.16;5056311;28;20044;-79
2023/04/04 07:32:34;;;;;;;10.20;4.43;;;;;;;9.70;45.12;102881.97;5054975;28;20041;-80
2023/04/04 07:34:59;;;;;;;9.98;4.47;;;;;;;9.90;45.73;102869.69;5056058;28;20539;-80
2023/04/04 07:37:28;;;;;;;6.95;4.28;;;;;;;9.98;44.97;102881.53;5055436;28;20037;-81
2023/04/04 07:39:53;;;;;;;10.18;4.32;;;;;;;10.01;43.52;102886.94;5054804;28;20069;-81
2023/04/04 07:42:22;;;;;;;6.85;4.00;;;;;;;10.23;43.80;102887.06;5056477;28;20109;-79
2023/04/04 07:44:56;;;;;;;8.95;4.47;;;;;;;10.41;43.61;102867.63;5054385;28;20037;-81
2023/04/04 07:47:22;;;;;;;6.90;4.05;;;;;;;10.45;41.66;102857.25;5055955;28;20040;-80
2023/04/04 07:49:47;;;;;;;7.00;3.95;;;;;;;10.88;41.39;102871.41;5053758;28;20405;-81
2023/04/04 07:52:12;;;;;;;9.60;4.20;;;;;;;11.16;41.18;102876.09;5055430;28;20032;-81
2023/04/04 07:54:39;;;;;;;7.35;4.00;;;;;;;11.42;41.04;102885.06;5054085;28;20029;-79
2023/04/04 07:57:04;;;;;;;10.68;4.13;;;;;;;11.58;40.68;102868.06;5054357;28;20065;-79
2023/04/04 07:59:31;;;;;;;7.82;4.13;;;;;;;11.67;39.89;102879.00;5055291;28;20087;-80
2023/04/04 08:01:57;;;;;;;11.65;4.10;;;;;;;11.85;39.36;102884.13;5053846;28;20439;-79
2023/04/04 08:04:22;;;;;;;6.65;3.72;;;;;;;11.76;39.74;102871.41;5055472;28;20053;-78
2023/04/04 08:06:50;;;;;;;12.68;6.32;;;;;;;11.91;39.20;102881.75;5053842;28;20381;-79
2023/04/04 08:09:16;;;;;;;9.05;4.10;;;;;;;11.97;37.80;102882.84;5055359;28;20115;-79
2023/04/04 08:11:41;;;;;;;10.05;3.58;;;;;;;12.13;38.02;102881.69;5055169;28;20108;-77
2023/04/04 08:14:10;;;;;;;7.78;3.63;;;;;;;12.16;37.27;102860.59;5055561;28;20037;-76
2023/04/04 08:16:36;;;;;;;6.90;3.80;;;;;;;12.51;37.08;102891.03;5055044;28;20033;-77
2023/04/04 08:19:06;;;;;;;7.97;3.72;;;;;;;12.57;36.25;102876.19;5053770;28;20033;-80
2023/04/04 08:21:32;;;;;;;6.95;3.40;;;;;;;12.67;35.26;102889.78;5054863;28;20079;-77
2023/04/04 08:23:57;;;;;;;7.72;3.90;;;;;;;12.74;35.25;102896.22;5055087;28;20029;-79
2023/04/04 08:26:22;;;;;;;7.95;3.40;;;;;;;12.91;35.93;102900.38;5054901;28;20045;-78
2023/04/04 08:28:48;;;;;;;6.80;3.08;;;;;;;13.05;33.23;102895.50;5055181;28;20056;-77
2023/04/04 08:31:14;;;;;;;6.18;3.33;;;;;;;13.03;33.84;102853.00;5054818;28;20037;-78
2023/04/04 08:33:40;;;;;;;6.22;3.67;;;;;;;13.28;35.10;102869.78;5054727;28;20044;-84
2023/04/04 08:36:06;;;;;;;6.28;3.40;;;;;;;13.44;34.62;102872.03;5054742;28;20033;-77
2023/04/04 08:38:31;;;;;;;6.38;3.20;;;;;;;13.47;33.44;102873.91;5054512;28;20044;-77
2023/04/04 08:40:57;;;;;;;6.80;3.05;;;;;;;13.53;31.69;102876.75;5066767;28;20047;-78
2023/04/04 08:43:26;;;;;;;5.28;2.90;;;;;;;13.60;31.57;102873.44;5074465;28;20457;-79
2023/04/04 08:45:53;;;;;;;7.07;2.70;;;;;;;13.70;30.80;102869.28;5074597;28;20035;-79
2023/04/04 08:48:20;;;;;;;6.70;2.72;;;;;;;13.80;32.17;102866.06;5074145;28;20492;-77
2023/04/04 08:50:45;;;;;;;5.30;3.00;;;;;;;13.98;32.41;102863.06;5074540;28;20025;-78
2023/04/04 08:53:13;;;;;;;7.30;3.10;;;;;;;13.86;30.89;102855.59;5074464;28;20111;-78
2023/04/04 08:55:41;;;;;;;6.15;2.63;;;;;;;13.78;30.09;102830.56;5072959;28;20029;-77
2023/04/04 08:58:07;;;;;;;8.40;3.78;;;;;;;14.04;31.70;102864.09;5074662;28;20040;-77
2023/04/04 09:00:33;;;;;;;5.90;3.00;;;;;;;14.16;31.09;102862.66;5074051;28;20035;-77
2023/04/04 09:03:28;;;;;;;9.35;3.20;;;;;;;14.24;30.97;102862.03;5074063;28;20135;-78
2023/04/04 09:05:56;;;;;;;7.88;3.20;;;;;;;14.17;30.06;102859.16;5065891;28;20049;-77
2023/04/04 09:08:24;;;;;;;7.00;2.95;;;;;;;14.42;30.37;102868.72;5073611;28;20024;-77
2023/04/04 09:10:51;;;;;;;8.25;2.90;;;;;;;14.68;30.20;102862.34;5074327;28;20029;-77
2023/04/04 09:13:17;;;;;;;6.28;3.13;;;;;;;14.56;29.92;102845.16;5073769;28;20032;-78
2023/04/04 09:15:48;;;;;;;9.32;3.33;;;;;;;14.51;30.74;102851.25;5073022;28;20120;-80
2023/04/04 09:18:13;;;;;;;8.50;3.20;;;;;;;14.65;30.18;102867.63;5073825;28;20443;-78
2023/04/04 09:20:41;;;;;;;6.03;3.40;;;;;;;14.46;29.92;102857.28;5073953;28;20468;-78
2023/04/04 09:23:11;;;;;;;6.65;3.25;;;;;;;14.47;29.31;102873.31;5073890;28;20033;-78
2023/04/04 09:25:43;;;;;;;7.65;3.13;;;;;;;14.53;28.84;102876.16;5072623;28;20070;-78
2023/04/04 09:28:08;;;;;;;7.50;2.85;;;;;;;14.57;28.46;102863.84;5073813;28;20111;-78
2023/04/04 09:30:37;;;;;;;6.30;3.20;;;;;;;14.62;28.16;102863.97;5073741;28;20487;-78
2023/04/04 09:33:07;;;;;;;6.57;2.90;;;;;;;14.56;28.50;102861.13;5072302;28;20031;-78
2023/04/04 09:35:36;;;;;;;6.63;3.00;;;;;;;14.57;28.39;102857.63;5073432;28;20396;-78
2023/04/04 09:38:02;;;;;;;5.38;2.95;;;;;;;15.04;29.84;102869.50;5073314;28;20024;-78
2023/04/04 09:40:28;;;;;;;5.45;2.88;;;;;;;15.13;30.74;102861.72;5073622;28;20425;-78
2023/04/04 09:42:55;;;;;;;9.65;3.00;;;;;;;15.18;29.50;102853.84;5073291;28;20039;-78
2023/04/04 09:45:25;;;;;;;7.90;2.95;;;;;;;15.10;28.89;102855.41;5072165;28;20102;-78
2023/04/04 09:47:50;;;;;;;7.00;3.00;;;;;;;15.18;28.31;102841.44;5073181;28;20051;-78
2023/04/04 09:50:24;;;;;;;5.85;2.90;;;;;;;15.03;27.89;102846.38;5072209;28;20028;-78
2023/04/04 09:52:55;;;;;;;6.57;2.72;;;;;;;15.32;29.31;102855.06;5073317;28;20029;-79
2023/04/04 09:55:20;;;;;;;7.25;2.80;;;;;;;15.07;28.36;102847.34;5073285;28;20032;-78
2023/04/04 09:57:46;;;;;;;7.55;2.90;;;;;;;15.38;28.10;102841.00;5073551;28;20033;-78
2023/04/04 10:00:18;;;;;;;5.97;3.05;;;;;;;15.78;28.62;102842.81;5072998;28;20132;-79
2023/04/04 10:02:48;;;;;;;;;;;;;;;16.01;28.27;102844.16;5071981;28;20105;-79
2023/04/04 10:05:15;;;;;;;6.60;3.03;;;;;;;15.82;27.33;102843.78;5072982;28;20008;-79
2023/04/04 10:07:46;;;;;;;5.28;2.90;;;;;;;15.97;28.17;102849.41;5072998;28;20052;-80
2023/04/04 10:10:12;;;;;;;4.80;2.78;;;;;;;15.75;27.10;102843.63;5072984;28;20039;-80
2023/04/04 10:12:38;;;;;;;6.35;3.00;;;;;;;15.72;27.28;102835.59;5073067;28;20028;-79
2023/04/04 10:15:04;;;;;;;7.53;3.00;;;;;;;15.64;26.74;102839.84;5072760;28;20032;-78
2023/04/04 10:17:40;;;;;;;6.63;3.20;;;;;;;15.93;27.13;102847.53;5071455;28;20476;-79
2023/04/04 10:20:10;;;;;;;4.88;2.92;;;;;;;15.78;26.36;102843.69;5072982;28;20032;-79
2023/04/04 10:22:37;;;;;;;6.35;3.00;;;;;;;15.83;29.17;102834.91;5055475;28;20039;-79
2023/04/04 10:25:04;;;;;;;8.98;2.90;;;;;;;16.16;27.46;102830.25;5072741;28;20029;-79
2023/04/04 10:27:30;;;;;;;7.03;2.95;;;;;;;16.36;26.96;102829.72;5071937;28;20028;-78
2023/04/04 10:29:56;;;;;;;8.27;3.40;;;;;;;16.22;27.80;102830.34;5072758;28;20384;-78
2023/04/04 10:32:28;;;;;;;5.53;3.05;;;;;;;16.22;27.92;102837.47;5072640;28;20039;-79
2023/04/04 10:35:04;;;;;;;9.25;3.30;;;;;;;16.40;28.44;102820.91;5072436;28;20047;-79
2023/04/04 10:37:44;;;;;;;8.02;3.20;;;;;;;16.54;26.84;102835.41;5072719;28;20379;-78
2023/04/04 10:40:10;;;;;;;7.80;2.88;;;;;;;16.39;25.96;102843.13;5072917;28;20032;-79
2023/04/04 10:42:39;;;;;;;7.50;3.10;;;;;;;16.17;27.25;102831.16;5072624;28;20028;-79
2023/04/04 10:45:07;;;;;;;6.93;3.10;;;;;;;16.43;28.11;102823.63;5072809;28;20036;-79
2023/04/04 10:47:33;;;;;;;4.60;2.83;;;;;;;16.71;26.99;102823.25;5072117;28;20444;-79
2023/04/04 10:50:00;;;;;;;5.07;2.95;;;;;;;16.97;27.00;102812.13;5071059;28;20440;-79
2023/04/04 10:52:27;;;;;;;6.63;3.10;;;;;;;16.94;25.06;102801.41;5072841;28;20035;-80
2023/04/04 10:54:57;;;;;;;5.15;2.90;;;;;;;16.95;27.27;102801.41;5072160;28;20460;-79
2023/04/04 10:57:24;;;;;;;6.97;3.95;;;;;;;16.62;24.91;102801.75;5072763;28;20063;-79
2023/04/04 11:00:07;;;;;;;4.85;2.90;;;;;;;16.06;26.65;102814.03;5072097;28;20037;-79
2023/04/04 11:02:43;;;;;;;7.22;3.35;;;;;;;15.60;27.24;102797.97;5072623;28;20028;-79
2023/04/04 11:05:30;;;;;;;9.05;3.00;;;;;;;15.82;26.92;102812.69;5072645;28;20051;-78
2023/04/04 11:08:07;;;;;;;5.22;3.10;;;;;;;15.83;28.27;102809.13;5072270;28;20131;-79
2023/04/04 11:10:43;;;;;;;6.95;2.90;;;;;;;16.07;27.43;102790.06;5072283;28;20029;-78
2023/04/04 11:13:34;;;;;;;5.78;3.00;;;;;;;16.51;27.33;102784.66;5072552;28;20591;-78
2023/04/04 11:16:14;;;;;;;5.32;3.03;;;;;;;16.71;26.87;102788.56;5072062;28;20086;-79
2023/04/04 11:18:44;;;;;;;6.72;3.08;;;;;;;16.70;26.54;102786.75;5072572;28;20074;-78
2023/04/04 11:21:12;;;;;;;5.75;3.13;;;;;;;16.78;27.19;102778.88;5072272;28;20119;-78
2023/04/04 11:23:50;;;;;;;8.23;2.88;;;;;;;16.94;27.62;102777.38;5072337;28;20064;-78
2023/04/04 11:26:34;;;;;;;6.07;2.83;;;;;;;17.17;26.03;102762.59;5072054;28;20029;-79
2023/04/04 11:29:00;;;;;;;6.97;2.80;;;;;;;17.50;26.73;102747.88;5072309;28;20028;-78